createdAt,value
2018-05-17T00:00:35.710Z,6.15
2018-05-17T00:03:08.265Z,6.78
2018-05-17T00:05:40.869Z,5.85
2018-05-17T00:08:13.394Z,6.10
2018-05-17T00:10:45.933Z,5.28
2018-05-17T00:13:18.437Z,5.68
2018-05-17T00:15:50.961Z,5.68
2018-05-17T00:18:23.464Z,5.90
2018-05-17T00:20:56.002Z,5.90
2018-05-17T00:23:28.508Z,6.53
2018-05-17T00:26:01.036Z,6.40
2018-05-17T00:28:33.550Z,5.65
2018-05-17T00:31:07.367Z,5.65
2018-05-17T00:33:39.871Z,6.15
2018-05-17T00:36:12.404Z,5.90
2018-05-17T00:38:44.935Z,5.75
2018-05-17T00:41:17.478Z,6.35
2018-05-17T00:43:49.980Z,6.07
2018-05-17T00:46:22.511Z,5.90
2018-05-17T00:48:55.029Z,5.72
2018-05-17T00:51:27.557Z,5.62
2018-05-17T00:54:00.072Z,6.12
2018-05-17T00:56:32.595Z,6.55
2018-05-17T00:59:05.294Z,5.75
2018-05-17T01:01:38.567Z,7.00
2018-05-17T01:04:11.132Z,6.50
2018-05-17T01:06:43.791Z,6.40
2018-05-17T01:09:16.356Z,5.80
2018-05-17T01:11:48.898Z,5.95
2018-05-17T01:14:21.420Z,6.07
2018-05-17T01:16:54.008Z,6.45
2018-05-17T01:19:26.508Z,6.32
2018-05-17T01:21:59.031Z,6.20
2018-05-17T01:24:31.547Z,7.30
2018-05-17T01:27:04.081Z,7.20
2018-05-17T01:29:36.615Z,7.47
2018-05-17T01:32:09.173Z,6.87
2018-05-17T01:34:41.716Z,6.90
2018-05-17T01:37:26.094Z,7.55
2018-05-17T01:39:58.606Z,6.78
2018-05-17T01:42:31.133Z,7.32
2018-05-17T01:45:03.640Z,7.30
2018-05-17T01:47:36.795Z,8.40
2018-05-17T01:50:09.340Z,7.30
2018-05-17T01:52:41.904Z,6.65
2018-05-17T01:55:14.434Z,6.97
2018-05-17T01:57:46.971Z,6.97
2018-05-17T02:00:19.503Z,7.27
2018-05-17T02:02:52.021Z,6.90
2018-05-17T02:05:24.552Z,7.00
2018-05-17T02:07:57.064Z,6.55
2018-05-17T02:10:29.597Z,6.68
2018-05-17T02:13:02.113Z,6.60
2018-05-17T02:15:34.673Z,7.57
2018-05-17T02:18:07.323Z,7.60
2018-05-17T02:20:39.970Z,6.50
2018-05-17T02:23:12.712Z,7.03
2018-05-17T02:25:45.462Z,7.22
2018-05-17T02:28:17.963Z,6.40
2018-05-17T02:30:50.500Z,6.90
2018-05-17T02:33:23.018Z,6.60
2018-05-17T02:35:55.548Z,6.20
2018-05-17T02:38:28.055Z,6.03
2018-05-17T02:41:00.628Z,6.80
2018-05-17T02:43:33.142Z,6.93
2018-05-17T02:46:05.679Z,6.37
2018-05-17T02:48:38.210Z,7.40
2018-05-17T02:51:10.967Z,6.97
2018-05-17T02:53:44.015Z,7.27
2018-05-17T02:58:55.377Z,6.67
2018-05-17T03:01:27.894Z,7.27
2018-05-17T03:04:00.416Z,7.17
2018-05-17T03:06:32.934Z,7.20
2018-05-17T03:09:06.252Z,7.50
2018-05-17T03:11:38.924Z,7.37
2018-05-17T03:14:11.480Z,7.70
2018-05-17T03:16:44.071Z,7.57
2018-05-17T03:19:16.620Z,6.80
2018-05-17T03:21:49.160Z,7.63
2018-05-17T03:24:21.657Z,7.17
2018-05-17T03:26:54.177Z,7.07
2018-05-17T03:29:26.672Z,7.87
2018-05-17T03:31:59.203Z,7.10
2018-05-17T03:34:31.708Z,7.30
2018-05-17T03:37:04.229Z,7.50
2018-05-17T03:39:36.786Z,7.60
2018-05-17T03:42:09.648Z,7.73
2018-05-17T03:44:42.186Z,8.27
2018-05-17T03:47:15.092Z,7.57
2018-05-17T03:49:47.629Z,7.30
2018-05-17T03:52:20.160Z,7.43
2018-05-17T03:54:52.662Z,8.07
2018-05-17T03:57:25.201Z,6.93
2018-05-17T03:59:57.699Z,8.40
2018-05-17T04:02:41.945Z,8.47
2018-05-17T04:05:26.290Z,8.27
2018-05-17T04:07:58.813Z,7.37
2018-05-17T04:10:31.319Z,8.37
2018-05-17T04:13:03.845Z,7.87
2018-05-17T04:15:36.464Z,7.47
2018-05-17T04:18:09.337Z,7.30
2018-05-17T04:20:41.861Z,7.30
2018-05-17T04:23:14.396Z,7.93
2018-05-17T04:25:46.928Z,8.03
2018-05-17T04:28:19.456Z,7.87
2018-05-17T04:30:51.957Z,8.87
2018-05-17T04:33:24.488Z,8.53
2018-05-17T04:35:56.987Z,8.23
2018-05-17T04:38:29.518Z,7.93
2018-05-17T04:41:02.023Z,7.63
2018-05-17T04:43:34.650Z,8.48
2018-05-17T04:46:07.263Z,8.30
2018-05-17T04:48:39.877Z,9.03
2018-05-17T04:51:12.393Z,8.50
2018-05-17T04:53:45.054Z,7.80
2018-05-17T04:56:17.582Z,8.10
2018-05-17T04:58:50.112Z,8.25
2018-05-17T05:01:22.621Z,7.68
2018-05-17T05:03:55.152Z,9.25
2018-05-17T05:06:27.661Z,7.97
2018-05-17T05:09:00.187Z,8.38
2018-05-17T05:11:32.696Z,8.93
2018-05-17T05:14:05.607Z,8.45
2018-05-17T05:16:38.300Z,8.13
2018-05-17T05:19:10.890Z,8.05
2018-05-17T05:21:43.423Z,8.15
2018-05-17T05:24:15.953Z,8.30
2018-05-17T05:26:49.113Z,8.18
2018-05-17T05:29:21.630Z,8.90
2018-05-17T05:31:54.136Z,8.30
2018-05-17T05:34:26.665Z,8.38
2018-05-17T05:36:59.183Z,8.70
2018-05-17T05:39:31.709Z,8.38
2018-05-17T05:42:04.267Z,8.75
2018-05-17T05:44:37.094Z,8.15
2018-05-17T05:47:09.688Z,8.57
2018-05-17T05:49:42.435Z,7.95
2018-05-17T05:52:14.969Z,8.38
2018-05-17T05:54:47.481Z,8.27
2018-05-17T05:57:20.011Z,7.57
2018-05-17T05:59:52.529Z,7.72
2018-05-17T06:02:25.108Z,9.25
2018-05-17T06:04:57.590Z,8.45
2018-05-17T06:07:30.129Z,8.68
2018-05-17T06:10:02.643Z,7.55
2018-05-17T06:12:35.411Z,8.05
2018-05-17T06:15:07.934Z,8.30
2018-05-17T06:17:40.497Z,8.95
2018-05-17T06:20:13.036Z,8.00
2018-05-17T06:22:45.560Z,8.80
2018-05-17T06:25:18.061Z,7.82
2018-05-17T06:27:50.583Z,8.50
2018-05-17T06:30:23.160Z,7.85
2018-05-17T06:32:55.626Z,7.87
2018-05-17T06:35:28.137Z,9.55
2018-05-17T06:38:00.663Z,8.15
2018-05-17T06:40:33.160Z,8.20
2018-05-17T06:43:06.422Z,8.43
2018-05-17T06:45:39.079Z,8.52
2018-05-17T06:48:11.609Z,8.10
2018-05-17T06:50:44.147Z,8.68
2018-05-17T06:53:16.673Z,8.73
2018-05-17T06:55:49.190Z,7.50
2018-05-17T06:58:21.729Z,9.32
2018-05-17T07:00:54.254Z,8.40
2018-05-17T07:03:26.787Z,7.40
2018-05-17T07:05:59.294Z,7.82
2018-05-17T07:08:31.834Z,8.00
2018-05-17T07:11:04.455Z,9.25
2018-05-17T07:13:36.980Z,8.43
2018-05-17T07:16:09.508Z,8.63
2018-05-17T07:18:42.336Z,7.82
2018-05-17T07:21:14.577Z,8.13
2018-05-17T07:23:47.108Z,8.85
2018-05-17T07:26:19.609Z,8.18
2018-05-17T07:28:52.155Z,8.55
2018-05-17T07:31:24.684Z,8.30
2018-05-17T07:33:57.204Z,7.93
2018-05-17T07:36:29.726Z,8.82
2018-05-17T07:39:02.256Z,7.80
2018-05-17T07:41:34.758Z,8.70
2018-05-17T07:44:07.291Z,7.70
2018-05-17T07:46:40.219Z,7.82
2018-05-17T07:49:12.718Z,7.75
2018-05-17T07:51:45.338Z,7.87
2018-05-17T07:54:17.860Z,8.70
2018-05-17T07:56:50.369Z,8.32
2018-05-17T07:59:22.893Z,8.27
2018-05-17T08:01:55.397Z,8.43
2018-05-17T08:04:27.945Z,8.60
2018-05-17T08:07:00.472Z,7.72
2018-05-17T08:09:33.000Z,8.38
2018-05-17T08:12:05.621Z,7.47
2018-05-17T08:14:38.368Z,7.68
2018-05-17T08:17:10.909Z,7.15
2018-05-17T08:19:43.442Z,7.80
2018-05-17T08:22:16.063Z,8.85
2018-05-17T08:24:48.620Z,8.85
2018-05-17T08:27:21.137Z,8.80
2018-05-17T08:29:53.701Z,8.75
2018-05-17T08:32:26.211Z,7.25
2018-05-17T08:34:58.741Z,8.05
2018-05-17T08:37:31.257Z,7.93
2018-05-17T08:40:03.778Z,7.62
2018-05-17T08:42:36.727Z,8.38
2018-05-17T08:45:09.264Z,7.60
2018-05-17T08:47:41.779Z,8.88
2018-05-17T08:50:14.324Z,7.57
2018-05-17T08:52:46.842Z,7.32
2018-05-17T08:55:19.367Z,8.20
2018-05-17T08:57:51.864Z,7.93
2018-05-17T09:00:24.387Z,7.78
2018-05-17T09:02:56.893Z,8.68
2018-05-17T09:05:29.423Z,6.93
2018-05-17T09:08:02.012Z,7.40
2018-05-17T09:10:34.543Z,8.63
2018-05-17T09:13:07.093Z,8.07
2018-05-17T09:15:39.655Z,7.70
2018-05-17T09:18:12.232Z,7.97
2018-05-17T09:20:44.736Z,7.30
2018-05-17T09:23:17.267Z,7.60
2018-05-17T09:25:49.772Z,7.82
2018-05-17T09:28:22.297Z,8.15
2018-05-17T09:30:54.817Z,7.62
2018-05-17T09:33:27.344Z,7.95
2018-05-17T09:35:59.845Z,8.10
2018-05-17T09:38:32.377Z,7.55
2018-05-17T09:41:04.997Z,8.23
2018-05-17T09:43:37.733Z,7.95
2018-05-17T09:46:10.250Z,7.45
2018-05-17T09:48:43.150Z,8.75
2018-05-17T09:51:15.696Z,7.80
2018-05-17T09:53:48.360Z,7.75
2018-05-17T09:56:20.862Z,8.05
2018-05-17T09:58:53.398Z,7.53
2018-05-17T10:01:25.902Z,7.28
2018-05-17T10:03:58.440Z,8.18
2018-05-17T10:06:30.940Z,7.22
2018-05-17T10:09:03.476Z,7.97
2018-05-17T10:11:36.040Z,7.65
2018-05-17T10:14:08.596Z,7.85
2018-05-17T10:19:13.214Z,8.80
2018-05-17T10:21:45.794Z,7.00
2018-05-17T10:24:18.283Z,7.95
2018-05-17T10:26:50.787Z,7.55
2018-05-17T10:29:23.328Z,7.65
2018-05-17T10:31:55.842Z,7.87
2018-05-17T10:34:28.369Z,7.85
2018-05-17T10:37:00.899Z,8.23
2018-05-17T10:39:33.456Z,8.15
2018-05-17T10:42:06.028Z,8.15
2018-05-17T10:44:38.523Z,8.82
2018-05-17T10:47:11.098Z,8.93
2018-05-17T10:49:43.639Z,7.78
2018-05-17T10:52:16.152Z,7.65
2018-05-17T10:54:48.675Z,8.18
2018-05-17T10:57:21.184Z,8.65
2018-05-17T10:59:53.770Z,8.15
2018-05-17T11:02:26.282Z,9.85
2018-05-17T11:04:58.804Z,8.73
2018-05-17T11:07:31.310Z,7.85
2018-05-17T11:10:03.831Z,8.45
2018-05-17T11:12:36.346Z,7.55
2018-05-17T11:15:09.220Z,8.15
2018-05-17T11:17:41.664Z,7.85
2018-05-17T11:20:14.207Z,7.90
2018-05-17T11:22:46.728Z,7.55
2018-05-17T11:25:19.251Z,7.75
2018-05-17T11:27:51.789Z,8.30
2018-05-17T11:30:24.320Z,7.97
2018-05-17T11:32:56.849Z,7.47
2018-05-17T11:35:29.356Z,7.80
2018-05-17T11:38:01.869Z,8.10
2018-05-17T11:40:34.417Z,7.53
2018-05-17T11:43:06.970Z,8.48
2018-05-17T11:45:39.548Z,7.57
2018-05-17T11:48:12.119Z,6.97
2018-05-17T11:50:44.649Z,8.18
2018-05-17T11:53:17.165Z,7.43
2018-05-17T11:55:49.699Z,6.65
2018-05-17T11:58:22.197Z,6.78
2018-05-17T12:00:54.718Z,7.70
2018-05-17T12:03:27.221Z,7.12
2018-05-17T12:05:59.748Z,7.20
2018-05-17T12:08:32.257Z,7.65
2018-05-17T12:11:04.793Z,7.15
2018-05-17T12:13:37.295Z,7.68
2018-05-17T12:16:09.814Z,6.78
2018-05-17T12:18:42.323Z,6.93
2018-05-17T12:21:14.844Z,7.68
2018-05-17T12:23:47.354Z,7.18
2018-05-17T12:26:19.871Z,7.78
2018-05-17T12:28:52.379Z,8.00
2018-05-17T12:31:24.918Z,7.45
2018-05-17T12:33:57.416Z,7.43
2018-05-17T12:36:29.943Z,7.03
2018-05-17T12:39:02.448Z,7.45
2018-05-17T12:41:35.013Z,7.15
2018-05-17T12:44:07.508Z,7.85
2018-05-17T12:46:40.359Z,7.57
2018-05-17T12:49:12.880Z,6.87
2018-05-17T12:51:45.428Z,7.00
2018-05-17T12:54:17.979Z,7.70
2018-05-17T12:56:50.509Z,7.72
2018-05-17T12:59:23.218Z,7.45
2018-05-17T13:01:55.596Z,7.65
2018-05-17T13:04:28.135Z,7.55
2018-05-17T13:07:00.710Z,7.72
2018-05-17T13:09:33.202Z,7.32
2018-05-17T13:12:05.706Z,6.80
2018-05-17T13:14:38.666Z,6.87
2018-05-17T13:17:11.176Z,7.20
2018-05-17T13:19:43.704Z,7.65
2018-05-17T13:22:16.218Z,7.40
2018-05-17T13:24:49.052Z,6.82
2018-05-17T13:27:21.504Z,6.95
2018-05-17T13:29:54.020Z,6.93
2018-05-17T13:32:26.520Z,7.82
2018-05-17T13:34:59.044Z,6.53
2018-05-17T13:37:31.596Z,6.45
2018-05-17T13:40:04.096Z,6.47
2018-05-17T13:42:36.596Z,6.62
2018-05-17T13:45:09.131Z,6.82
2018-05-17T13:47:41.677Z,6.75
2018-05-17T13:50:14.187Z,6.95
2018-05-17T13:52:46.697Z,6.65
2018-05-17T13:55:19.223Z,5.90
2018-05-17T13:57:51.727Z,6.72
2018-05-17T14:00:24.258Z,5.90
2018-05-17T14:02:56.787Z,6.45
2018-05-17T14:05:29.306Z,6.00
2018-05-17T14:08:01.803Z,6.47
2018-05-17T14:10:34.382Z,6.10
2018-05-17T14:13:06.895Z,6.35
2018-05-17T14:15:39.429Z,6.20
2018-05-17T14:18:11.976Z,5.72
2018-05-17T14:20:44.496Z,5.97
2018-05-17T14:23:17.003Z,5.20
2018-05-17T14:25:49.539Z,6.18
2018-05-17T14:28:22.051Z,5.60
2018-05-17T14:30:54.662Z,5.75
2018-05-17T14:36:05.944Z,5.28
2018-05-17T14:38:38.470Z,6.12
2018-05-17T14:41:11.010Z,6.57
2018-05-17T14:43:43.514Z,6.03
2018-05-17T14:46:16.042Z,6.10
2018-05-17T14:48:48.548Z,6.57
2018-05-17T14:51:21.081Z,7.05
2018-05-17T14:53:53.869Z,7.62
2018-05-17T14:56:26.423Z,7.32
2018-05-17T14:58:58.946Z,7.43
2018-05-17T15:01:31.465Z,9.05
2018-05-17T15:04:03.965Z,9.18
2018-05-17T15:06:36.502Z,11.57
2018-05-17T15:09:09.015Z,9.18
2018-05-17T15:11:41.541Z,8.63
2018-05-17T15:14:14.090Z,8.20
2018-05-17T15:16:46.624Z,8.45
2018-05-17T15:19:19.153Z,7.85
2018-05-17T15:21:51.673Z,8.50
2018-05-17T15:24:24.182Z,8.25
2018-05-17T15:26:56.710Z,7.85
2018-05-17T15:29:29.213Z,8.48
2018-05-17T15:32:01.764Z,8.70
2018-05-17T15:34:34.273Z,8.15
2018-05-17T15:37:06.878Z,8.27
2018-05-17T15:39:39.418Z,9.00
2018-05-17T15:42:11.941Z,8.13
2018-05-17T15:44:44.449Z,8.27
2018-05-17T15:47:16.967Z,8.32
2018-05-17T15:49:49.476Z,8.77
2018-05-17T15:52:22.153Z,8.32
2018-05-17T15:54:54.669Z,8.77
2018-05-17T15:57:27.207Z,6.90
2018-05-17T16:00:00.682Z,7.28
2018-05-17T16:02:33.200Z,7.93
2018-05-17T16:05:05.704Z,7.82
2018-05-17T16:07:38.240Z,8.10
2018-05-17T16:10:10.741Z,7.60
2018-05-17T16:12:43.268Z,7.65
2018-05-17T16:15:15.978Z,8.48
2018-05-17T16:17:48.308Z,8.60
2018-05-17T16:20:20.811Z,7.20
2018-05-17T16:22:53.334Z,8.05
2018-05-17T16:25:25.850Z,8.27
2018-05-17T16:27:58.379Z,9.05
2018-05-17T16:30:30.925Z,7.50
2018-05-17T16:33:03.436Z,7.50
2018-05-17T16:35:35.967Z,7.62
2018-05-17T16:38:08.480Z,7.47
2018-05-17T16:40:41.004Z,7.47
2018-05-17T16:43:13.517Z,7.43
2018-05-17T16:45:46.041Z,7.20
2018-05-17T16:48:18.591Z,7.30
2018-05-17T16:50:51.122Z,8.30
2018-05-17T16:53:23.706Z,7.68
2018-05-17T16:55:56.199Z,7.85
2018-05-17T16:58:28.715Z,6.97
2018-05-17T17:01:01.246Z,7.30
2018-05-17T17:03:33.752Z,7.43
2018-05-17T17:06:06.275Z,6.93
2018-05-17T17:08:38.790Z,7.25
2018-05-17T17:11:11.320Z,7.30
2018-05-17T17:13:43.827Z,7.40
2018-05-17T17:16:16.347Z,6.78
2018-05-17T17:18:48.845Z,6.85
2018-05-17T17:21:21.384Z,8.35
2018-05-17T17:23:53.913Z,7.43
2018-05-17T17:26:26.478Z,8.27
2018-05-17T17:28:58.949Z,7.55
2018-05-17T17:31:31.487Z,7.03
2018-05-17T17:34:03.991Z,7.85
2018-05-17T17:36:36.616Z,6.80
2018-05-17T17:39:09.081Z,7.95
2018-05-17T17:41:41.666Z,7.45
2018-05-17T17:44:14.168Z,7.32
2018-05-17T17:46:46.721Z,7.07
2018-05-17T17:49:19.224Z,7.47
2018-05-17T17:51:51.751Z,6.85
2018-05-17T17:54:24.253Z,7.35
2018-05-17T17:56:59.015Z,8.07
2018-05-17T17:59:32.045Z,8.05
2018-05-17T18:02:04.583Z,6.55
2018-05-17T18:04:37.132Z,7.55
2018-05-17T18:07:09.801Z,7.28
2018-05-17T18:09:43.431Z,7.60
2018-05-17T18:12:16.101Z,7.87
2018-05-17T18:14:48.611Z,8.70
2018-05-17T18:17:21.143Z,8.13
2018-05-17T18:19:53.648Z,7.32
2018-05-17T18:22:26.175Z,7.75
2018-05-17T18:24:58.698Z,7.18
2018-05-17T18:27:31.222Z,7.50
2018-05-17T18:30:03.731Z,7.10
2018-05-17T18:32:36.301Z,7.12
2018-05-17T18:35:08.804Z,7.15
2018-05-17T18:37:41.394Z,7.05
2018-05-17T18:40:14.234Z,7.55
2018-05-17T18:42:46.769Z,7.65
2018-05-17T18:45:19.307Z,7.85
2018-05-17T18:47:51.825Z,7.68
2018-05-17T18:50:24.337Z,6.18
2018-05-17T18:52:56.867Z,7.75
2018-05-17T18:55:29.366Z,7.80
2018-05-17T18:58:01.895Z,7.43
2018-05-17T19:00:34.441Z,7.45
2018-05-17T19:03:07.182Z,7.45
2018-05-17T19:05:40.739Z,7.32
2018-05-17T19:08:13.269Z,7.70
2018-05-17T19:10:45.779Z,7.68
2018-05-17T19:13:18.436Z,7.47
2018-05-17T19:15:50.936Z,7.43
2018-05-17T19:18:23.456Z,6.65
2018-05-17T19:20:55.965Z,7.15
2018-05-17T19:23:28.506Z,7.85
2018-05-17T19:26:01.016Z,6.78
2018-05-17T19:28:33.546Z,6.70
2018-05-17T19:31:06.525Z,6.68
2018-05-17T19:33:39.064Z,7.40
2018-05-17T19:36:11.622Z,6.82
2018-05-17T19:38:44.149Z,6.00
2018-05-17T19:41:16.680Z,7.57
2018-05-17T19:43:49.221Z,7.35
2018-05-17T19:46:21.739Z,6.07
2018-05-17T19:48:54.262Z,6.95
2018-05-17T19:51:26.784Z,7.10
2018-05-17T19:53:59.308Z,6.43
2018-05-17T19:56:31.834Z,6.35
2018-05-17T19:59:05.515Z,7.62
2018-05-17T20:01:38.166Z,7.85
2018-05-17T20:04:10.965Z,8.60
2018-05-17T20:06:43.496Z,6.95
2018-05-17T20:09:16.000Z,7.55
2018-05-17T20:11:48.531Z,7.43
2018-05-17T20:14:21.037Z,7.05
2018-05-17T20:16:53.572Z,6.78
2018-05-17T20:19:26.074Z,6.15
2018-05-17T20:21:58.603Z,6.25
2018-05-17T20:24:31.121Z,6.68
2018-05-17T20:27:03.650Z,6.62
2018-05-17T20:29:36.870Z,7.15
2018-05-17T20:32:09.469Z,7.20
2018-05-17T20:34:41.976Z,8.35
2018-05-17T20:37:14.496Z,6.93
2018-05-17T20:39:47.005Z,7.90
2018-05-17T20:42:19.566Z,7.55
2018-05-17T20:44:52.062Z,7.43
2018-05-17T20:47:24.588Z,8.52
2018-05-17T20:49:57.086Z,8.30
2018-05-17T20:52:29.616Z,8.77
2018-05-17T20:55:02.123Z,8.38
2018-05-17T20:57:34.644Z,8.18
2018-05-17T21:00:07.144Z,8.25
2018-05-17T21:02:39.670Z,8.98
2018-05-17T21:05:12.221Z,9.13
2018-05-17T21:07:44.813Z,8.48
2018-05-17T21:10:17.442Z,9.17
2018-05-17T21:12:50.028Z,8.40
2018-05-17T21:15:22.501Z,9.60
2018-05-17T21:17:55.048Z,9.83
2018-05-17T21:20:27.544Z,9.60
2018-05-17T21:23:00.073Z,9.57
2018-05-17T21:25:32.594Z,10.00
2018-05-17T21:28:05.487Z,10.07
2018-05-17T21:30:38.005Z,9.55
2018-05-17T21:33:10.556Z,9.73
2018-05-17T21:35:43.076Z,10.13
2018-05-17T21:38:15.613Z,10.93
2018-05-17T21:40:48.120Z,10.45
2018-05-17T21:43:20.647Z,10.40
2018-05-17T21:45:53.155Z,11.48
2018-05-17T21:48:25.694Z,10.73
2018-05-17T21:50:58.196Z,10.60
2018-05-17T21:53:30.736Z,10.93
2018-05-17T21:56:03.250Z,11.73
2018-05-17T21:58:36.521Z,9.75
2018-05-17T22:01:09.061Z,11.32
2018-05-17T22:03:41.596Z,10.30
2018-05-17T22:06:14.110Z,9.63
2018-05-17T22:08:55.621Z,10.93
2018-05-17T22:11:28.147Z,9.75
2018-05-17T22:14:00.690Z,10.57
2018-05-17T22:16:33.210Z,11.20
2018-05-17T22:19:06.499Z,9.65
2018-05-17T22:21:39.021Z,10.90
2018-05-17T22:24:11.590Z,10.67
2018-05-17T22:29:22.895Z,10.33
2018-05-17T22:31:55.410Z,9.73
2018-05-17T22:34:27.957Z,10.00
2018-05-17T22:37:00.533Z,9.40
2018-05-17T22:39:33.136Z,9.98
2018-05-17T22:42:06.827Z,11.50
2018-05-17T22:44:39.456Z,10.03
2018-05-17T22:47:12.042Z,10.47
2018-05-17T22:49:44.640Z,9.43
2018-05-17T22:52:17.176Z,11.10
2018-05-17T22:54:49.717Z,9.98
2018-05-17T22:57:34.158Z,9.27
2018-05-17T23:00:07.468Z,9.80
2018-05-17T23:02:40.104Z,10.27
2018-05-17T23:05:12.609Z,10.50
2018-05-17T23:07:45.154Z,12.15
2018-05-17T23:10:17.693Z,10.63
2018-05-17T23:12:51.079Z,9.17
2018-05-17T23:15:23.600Z,11.05
2018-05-17T23:17:56.138Z,10.80
2018-05-17T23:20:28.644Z,9.40
2018-05-17T23:23:01.172Z,10.77
2018-05-17T23:25:33.709Z,10.77
2018-05-17T23:28:07.086Z,11.23
2018-05-17T23:30:39.691Z,10.33
2018-05-17T23:33:12.264Z,12.00
2018-05-17T23:35:44.789Z,11.30
2018-05-17T23:38:17.339Z,10.57
2018-05-17T23:43:56.800Z,9.83
2018-05-17T23:46:29.364Z,9.80
2018-05-17T23:49:01.896Z,10.20
2018-05-17T23:51:34.417Z,10.50
2018-05-17T23:54:07.379Z,10.60
2018-05-17T23:56:40.355Z,9.80
2018-05-17T23:59:12.927Z,10.27
